createdAt,value
2023-03-03T00:01:27.436Z,1.93
2023-03-03T00:03:57.457Z,1.95
2023-03-03T00:06:25.813Z,1.99
2023-03-03T00:08:53.621Z,1.83
2023-03-03T00:11:22.677Z,1.77
2023-03-03T00:13:52.554Z,1.76
2023-03-03T00:16:25.473Z,1.75
2023-03-03T00:18:54.268Z,1.76
2023-03-03T00:21:30.068Z,1.70
2023-03-03T00:24:18.114Z,1.68
2023-03-03T00:26:48.780Z,1.57
2023-03-03T00:29:30.914Z,1.49
2023-03-03T00:32:23.801Z,1.43
2023-03-03T00:34:52.669Z,1.47
2023-03-03T00:37:42.275Z,1.50
2023-03-03T00:40:34.233Z,1.52
2023-03-03T00:43:13.278Z,1.49
2023-03-03T00:45:44.652Z,1.37
2023-03-03T00:48:23.188Z,1.35
2023-03-03T00:50:51.770Z,1.36
2023-03-03T00:53:20.945Z,1.33
2023-03-03T00:55:50.777Z,1.29
2023-03-03T00:58:21.935Z,1.35
2023-03-03T01:00:50.699Z,1.43
2023-03-03T01:03:21.563Z,1.38
2023-03-03T01:05:51.876Z,1.32
2023-03-03T01:08:20.976Z,1.28
2023-03-03T01:10:51.814Z,1.27
2023-03-03T01:13:23.605Z,1.26
2023-03-03T01:15:51.982Z,1.28
2023-03-03T01:18:19.838Z,1.29
2023-03-03T01:20:48.240Z,1.36
2023-03-03T01:23:15.992Z,1.42
2023-03-03T01:25:43.637Z,1.45
2023-03-03T01:28:11.868Z,1.48
2023-03-03T01:30:41.231Z,1.50
2023-03-03T01:33:08.910Z,1.50
2023-03-03T01:35:36.826Z,1.46
2023-03-03T01:38:04.688Z,1.41
2023-03-03T01:40:32.657Z,1.40
2023-03-03T01:43:00.799Z,1.36
2023-03-03T01:45:30.152Z,1.26
2023-03-03T01:48:02.665Z,1.22
2023-03-03T01:50:42.776Z,1.27
2023-03-03T01:53:16.569Z,1.31
2023-03-03T01:55:45.524Z,1.30
2023-03-03T01:58:16.517Z,1.28
2023-03-03T02:00:47.725Z,1.29
2023-03-03T02:03:17.064Z,1.30
2023-03-03T02:05:45.175Z,1.34
2023-03-03T02:08:16.929Z,1.37
2023-03-03T02:10:46.030Z,1.41
2023-03-03T02:13:13.938Z,1.44
2023-03-03T02:15:41.552Z,1.45
2023-03-03T02:18:13.343Z,1.47
2023-03-03T02:20:54.772Z,1.51
2023-03-03T02:23:26.216Z,1.48
2023-03-03T02:26:06.745Z,1.44
2023-03-03T02:28:37.700Z,1.42
2023-03-03T02:31:08.347Z,1.43
2023-03-03T02:33:37.090Z,1.47
2023-03-03T02:36:04.940Z,1.48
2023-03-03T02:38:38.566Z,1.50
2023-03-03T02:41:14.118Z,1.54
2023-03-03T02:43:47.698Z,1.53
2023-03-03T02:46:15.398Z,1.56
2023-03-03T02:48:43.436Z,1.58
2023-03-03T02:51:11.262Z,1.61
2023-03-03T02:53:38.981Z,1.66
2023-03-03T02:56:12.767Z,1.64
2023-03-03T02:58:40.493Z,1.62
2023-03-03T03:01:08.666Z,1.60
2023-03-03T03:03:36.370Z,1.63
2023-03-03T03:06:04.353Z,1.62
2023-03-03T03:08:32.032Z,1.58
2023-03-03T03:11:01.145Z,1.58
2023-03-03T03:13:30.674Z,1.59
2023-03-03T03:15:58.649Z,1.63
2023-03-03T03:18:27.213Z,1.66
2023-03-03T03:20:55.231Z,1.67
2023-03-03T03:23:23.020Z,1.65
2023-03-03T03:25:51.209Z,1.64
2023-03-03T03:28:19.262Z,1.67
2023-03-03T03:30:48.605Z,1.66
2023-03-03T03:33:16.310Z,1.64
2023-03-03T03:35:45.613Z,1.65
2023-03-03T03:38:13.814Z,1.67
2023-03-03T03:40:43.355Z,1.68
2023-03-03T03:43:10.972Z,1.67
2023-03-03T03:45:38.698Z,1.67
2023-03-03T03:48:07.888Z,1.66
2023-03-03T03:50:36.926Z,1.72
2023-03-03T03:53:04.690Z,1.71
2023-03-03T03:55:32.554Z,1.75
2023-03-03T03:58:00.276Z,1.73
2023-03-03T04:00:27.920Z,1.70
2023-03-03T04:02:55.702Z,1.71
2023-03-03T04:05:25.011Z,1.75
2023-03-03T04:07:52.692Z,1.78
2023-03-03T04:10:20.666Z,1.76
2023-03-03T04:12:48.345Z,1.76
2023-03-03T04:15:16.289Z,1.72
2023-03-03T04:17:44.243Z,1.67
2023-03-03T04:20:15.206Z,1.62
2023-03-03T04:22:44.644Z,1.61
2023-03-03T04:25:15.379Z,1.67
2023-03-03T04:27:44.171Z,1.69
2023-03-03T04:30:13.592Z,1.67
2023-03-03T04:32:41.698Z,1.71
2023-03-03T04:35:10.558Z,1.74
2023-03-03T04:37:39.726Z,1.72
2023-03-03T04:40:10.827Z,1.70
2023-03-03T04:42:39.640Z,1.74
2023-03-03T04:45:08.689Z,1.70
2023-03-03T04:47:36.298Z,1.73
2023-03-03T04:50:04.379Z,1.78
2023-03-03T04:52:32.641Z,1.84
2023-03-03T04:55:00.276Z,1.81
2023-03-03T04:57:29.373Z,1.89
2023-03-03T04:59:56.972Z,1.89
2023-03-03T05:02:25.391Z,1.89
2023-03-03T05:04:53.412Z,1.81
2023-03-03T05:07:21.000Z,1.82
2023-03-03T05:09:48.882Z,1.93
2023-03-03T05:12:17.168Z,2.03
2023-03-03T05:14:46.355Z,2.02
2023-03-03T05:17:13.964Z,2.04
2023-03-03T05:19:41.981Z,2.07
2023-03-03T05:22:10.279Z,2.05
2023-03-03T05:24:38.115Z,2.06
2023-03-03T05:27:05.795Z,2.04
2023-03-03T05:29:33.487Z,2.03
2023-03-03T05:32:02.484Z,2.07
2023-03-03T05:34:30.137Z,2.09
2023-03-03T05:36:57.699Z,2.09
2023-03-03T05:39:25.370Z,2.09
2023-03-03T05:41:52.989Z,2.08
2023-03-03T05:44:20.830Z,2.07
2023-03-03T05:46:48.471Z,2.10
2023-03-03T05:49:17.537Z,2.14
2023-03-03T05:51:45.263Z,2.09
2023-03-03T05:54:12.927Z,2.11
2023-03-03T05:56:40.644Z,2.12
2023-03-03T05:59:08.265Z,2.11
2023-03-03T06:01:36.019Z,2.07
2023-03-03T06:04:03.746Z,2.07
2023-03-03T06:06:32.795Z,2.10
2023-03-03T06:09:00.624Z,1.97
2023-03-03T06:11:28.219Z,1.97
2023-03-03T06:13:55.887Z,2.03
2023-03-03T06:16:23.867Z,2.08
2023-03-03T06:18:51.584Z,2.08
2023-03-03T06:21:19.447Z,2.05
2023-03-03T06:23:48.386Z,2.03
2023-03-03T06:26:16.090Z,2.00
2023-03-03T06:28:43.725Z,2.00
2023-03-03T06:31:12.708Z,2.00
2023-03-03T06:33:42.162Z,1.98
2023-03-03T06:36:10.973Z,1.97
2023-03-03T06:38:38.808Z,1.95
2023-03-03T06:41:11.196Z,1.91
2023-03-03T06:43:38.973Z,1.93
2023-03-03T06:46:07.001Z,1.85
2023-03-03T06:48:35.228Z,1.79
2023-03-03T06:51:11.563Z,1.78
2023-03-03T06:53:39.627Z,1.86
2023-03-03T06:56:11.042Z,1.86
2023-03-03T06:58:38.775Z,1.86
2023-03-03T07:01:16.365Z,1.83
2023-03-03T07:03:44.232Z,1.86
2023-03-03T07:06:22.209Z,1.90
2023-03-03T07:08:49.973Z,1.94
2023-03-03T07:11:21.191Z,1.92
2023-03-03T07:13:51.372Z,1.97
2023-03-03T07:16:20.991Z,1.96
2023-03-03T07:18:55.416Z,1.98
2023-03-03T07:21:24.909Z,2.05
2023-03-03T07:23:54.543Z,2.09
2023-03-03T07:26:28.930Z,2.17
2023-03-03T07:29:01.313Z,2.15
2023-03-03T07:31:32.412Z,2.04
2023-03-03T07:34:01.370Z,2.04
2023-03-03T07:36:31.006Z,2.13
2023-03-03T07:39:01.217Z,2.18
2023-03-03T07:41:34.669Z,2.15
2023-03-03T07:44:06.776Z,2.14
2023-03-03T07:46:42.648Z,2.18
2023-03-03T07:49:22.820Z,2.23
2023-03-03T07:51:54.777Z,2.24
2023-03-03T07:54:31.134Z,2.22
2023-03-03T07:57:07.802Z,2.28
2023-03-03T07:59:37.867Z,2.30
2023-03-03T08:02:17.852Z,2.28
2023-03-03T08:04:50.815Z,2.16
2023-03-03T08:07:21.403Z,2.13
2023-03-03T08:09:51.999Z,2.20
2023-03-03T08:12:29.884Z,2.24
2023-03-03T08:15:09.090Z,2.21
2023-03-03T08:17:40.029Z,2.12
2023-03-03T08:20:51.328Z,2.08
2023-03-03T08:23:21.880Z,2.21
2023-03-03T08:25:51.204Z,2.23
2023-03-03T08:28:20.434Z,2.31
2023-03-03T08:30:49.062Z,2.34
2023-03-03T08:33:17.725Z,2.35
2023-03-03T08:35:46.029Z,2.32
2023-03-03T08:38:15.143Z,2.36
2023-03-03T08:40:43.321Z,2.45
2023-03-03T08:43:14.465Z,2.50
2023-03-03T08:45:43.720Z,2.47
2023-03-03T08:48:11.771Z,2.43
2023-03-03T08:50:40.053Z,2.49
2023-03-03T08:53:09.048Z,2.53
2023-03-03T08:55:36.661Z,2.60
2023-03-03T08:58:05.651Z,2.55
2023-03-03T09:00:33.635Z,2.60
2023-03-03T09:03:02.918Z,2.58
2023-03-03T09:05:31.433Z,2.55
2023-03-03T09:08:00.411Z,2.61
2023-03-03T09:10:31.741Z,2.69
2023-03-03T09:13:03.562Z,2.70
2023-03-03T09:15:34.090Z,2.74
2023-03-03T09:18:14.849Z,2.75
2023-03-03T09:20:43.921Z,2.71
2023-03-03T09:23:33.702Z,2.68
2023-03-03T09:26:23.260Z,2.71
2023-03-03T09:28:51.095Z,2.76
2023-03-03T09:31:26.282Z,2.76
2023-03-03T09:33:57.777Z,2.74
2023-03-03T09:36:27.948Z,2.84
2023-03-03T09:38:56.942Z,2.86
2023-03-03T09:41:45.521Z,2.86
2023-03-03T09:44:49.794Z,2.88
2023-03-03T09:47:31.451Z,2.82
2023-03-03T09:50:08.878Z,2.85
2023-03-03T09:52:49.153Z,2.92
2023-03-03T09:55:31.950Z,2.97
2023-03-03T09:58:14.563Z,2.95
2023-03-03T10:00:54.823Z,2.90
2023-03-03T10:03:58.000Z,2.81
2023-03-03T10:06:32.901Z,2.88
2023-03-03T10:09:29.299Z,2.87
2023-03-03T10:12:03.914Z,2.83
2023-03-03T10:14:50.886Z,2.83
2023-03-03T10:17:31.090Z,2.80
2023-03-03T10:20:18.360Z,2.82
2023-03-03T10:22:53.237Z,2.77
2023-03-03T10:25:30.718Z,2.67
2023-03-03T10:28:16.359Z,2.77
2023-03-03T10:31:04.881Z,2.96
2023-03-03T10:33:45.099Z,2.97
2023-03-03T10:36:35.400Z,3.04
2023-03-03T10:39:19.476Z,3.09
2023-03-03T10:42:16.290Z,3.03
2023-03-03T10:45:06.164Z,3.11
2023-03-03T10:47:44.617Z,3.20
2023-03-03T10:50:18.278Z,3.25
2023-03-03T10:52:49.873Z,3.22
2023-03-03T10:55:26.955Z,3.30
2023-03-03T10:58:20.903Z,3.33
2023-03-03T11:00:52.609Z,3.37
2023-03-03T11:04:01.275Z,3.31
2023-03-03T11:06:40.507Z,3.20
2023-03-03T11:09:19.422Z,3.25
2023-03-03T11:11:55.699Z,3.37
2023-03-03T11:14:30.812Z,3.48
2023-03-03T11:17:04.061Z,3.55
2023-03-03T11:19:47.326Z,3.47
2023-03-03T11:22:29.659Z,3.49
2023-03-03T11:25:06.100Z,3.52
2023-03-03T11:27:52.661Z,3.50
2023-03-03T11:30:35.577Z,3.50
2023-03-03T11:33:07.568Z,3.56
2023-03-03T11:35:45.215Z,3.61
2023-03-03T11:38:29.417Z,3.66
2023-03-03T11:40:59.984Z,3.66
2023-03-03T11:43:36.914Z,3.72
2023-03-03T11:46:09.900Z,3.78
2023-03-03T11:48:47.206Z,3.75
2023-03-03T11:51:21.061Z,3.76
2023-03-03T11:53:58.242Z,3.76
2023-03-03T11:56:30.809Z,3.79
2023-03-03T11:59:15.037Z,3.80
2023-03-03T12:01:48.493Z,3.74
2023-03-03T12:04:21.492Z,3.63
2023-03-03T12:07:16.828Z,3.67
2023-03-03T12:09:56.122Z,3.78
2023-03-03T12:12:26.116Z,3.87
2023-03-03T12:15:09.428Z,3.92
2023-03-03T12:17:52.626Z,3.93
2023-03-03T12:20:29.901Z,3.87
2023-03-03T12:23:09.613Z,4.07
2023-03-03T12:25:41.848Z,3.93
2023-03-03T12:28:16.144Z,4.09
2023-03-03T12:31:02.290Z,4.28
2023-03-03T12:33:46.990Z,4.26
2023-03-03T12:36:46.165Z,4.27
2023-03-03T12:39:34.671Z,4.16
2023-03-03T12:42:11.533Z,4.04
2023-03-03T12:44:44.754Z,4.18
2023-03-03T12:47:22.881Z,4.29
2023-03-03T12:50:08.347Z,4.38
2023-03-03T12:52:49.887Z,4.59
2023-03-03T12:55:38.067Z,4.65
2023-03-03T12:58:17.611Z,4.67
2023-03-03T13:00:56.463Z,4.61
2023-03-03T13:03:53.289Z,4.70
2023-03-03T13:06:30.115Z,4.65
2023-03-03T13:09:18.253Z,4.72
2023-03-03T13:12:01.834Z,4.75
2023-03-03T13:14:36.673Z,4.61
2023-03-03T13:17:16.737Z,4.62
2023-03-03T13:19:50.535Z,4.58
2023-03-03T13:22:36.373Z,4.61
2023-03-03T13:25:10.036Z,4.67
2023-03-03T13:27:41.901Z,4.77
2023-03-03T13:30:18.129Z,4.79
2023-03-03T13:32:50.838Z,4.73
2023-03-03T13:35:31.504Z,4.76
2023-03-03T13:38:00.212Z,4.84
2023-03-03T13:40:35.323Z,4.84
2023-03-03T13:43:11.078Z,4.67
2023-03-03T13:45:49.324Z,4.72
2023-03-03T13:48:31.363Z,4.70
2023-03-03T13:51:10.027Z,4.71
2023-03-03T13:53:50.461Z,4.68
2023-03-03T13:56:49.514Z,4.55
2023-03-03T13:59:29.836Z,4.55
2023-03-03T14:02:05.086Z,4.71
2023-03-03T14:04:48.346Z,4.70
2023-03-03T14:07:22.898Z,4.77
2023-03-03T14:10:03.552Z,4.76
2023-03-03T14:12:43.438Z,4.81
2023-03-03T14:15:22.120Z,4.79
2023-03-03T14:18:15.509Z,4.77
2023-03-03T14:20:49.117Z,4.72
2023-03-03T14:23:24.238Z,4.73
2023-03-03T14:26:08.980Z,4.56
2023-03-03T14:28:41.637Z,4.56
2023-03-03T14:31:19.530Z,4.84
2023-03-03T14:33:59.216Z,4.97
2023-03-03T14:36:32.076Z,5.09
2023-03-03T14:39:03.562Z,5.13
2023-03-03T14:41:40.117Z,5.18
2023-03-03T14:44:28.597Z,5.12
2023-03-03T14:47:21.019Z,4.99
2023-03-03T14:49:49.284Z,4.99
2023-03-03T14:52:24.785Z,4.94
2023-03-03T14:54:55.797Z,4.83
2023-03-03T14:57:46.310Z,4.81
2023-03-03T15:00:35.877Z,4.72
2023-03-03T15:03:19.473Z,4.62
2023-03-03T15:05:51.091Z,4.57
2023-03-03T15:08:28.974Z,4.53
2023-03-03T15:11:17.440Z,4.51
2023-03-03T15:13:45.453Z,4.54
2023-03-03T15:16:19.751Z,4.44
2023-03-03T15:19:20.495Z,4.38
2023-03-03T15:21:59.587Z,4.43
2023-03-03T15:24:36.220Z,4.45
2023-03-03T15:27:13.556Z,4.14
2023-03-03T15:29:56.500Z,4.26
2023-03-03T15:32:31.036Z,4.32
2023-03-03T15:35:07.760Z,4.28
2023-03-03T15:37:47.232Z,4.29
2023-03-03T15:40:25.815Z,4.05
2023-03-03T15:43:03.118Z,3.97
2023-03-03T15:45:35.575Z,4.05
2023-03-03T15:48:14.830Z,4.11
2023-03-03T15:50:56.988Z,4.05
2023-03-03T15:53:37.752Z,4.01
2023-03-03T15:56:16.971Z,4.03
2023-03-03T15:59:08.420Z,3.87
2023-03-03T16:01:42.467Z,3.94
2023-03-03T16:04:14.293Z,3.98
2023-03-03T16:06:50.357Z,3.99
2023-03-03T16:09:30.470Z,4.07
2023-03-03T16:12:09.903Z,4.02
2023-03-03T16:14:59.929Z,4.06
2023-03-03T16:17:36.613Z,4.11
2023-03-03T16:20:20.641Z,4.13
2023-03-03T16:23:09.704Z,3.96
2023-03-03T16:25:55.713Z,3.82
2023-03-03T16:28:28.522Z,3.74
2023-03-03T16:31:04.164Z,3.75
2023-03-03T16:33:43.772Z,3.84
2023-03-03T16:36:29.224Z,3.88
2023-03-03T16:39:04.722Z,3.84
2023-03-03T16:41:44.053Z,3.88
2023-03-03T16:44:20.757Z,3.84
2023-03-03T16:46:50.872Z,3.84
2023-03-03T16:49:26.750Z,3.82
2023-03-03T16:52:01.392Z,3.84
2023-03-03T16:54:36.063Z,3.82
2023-03-03T16:57:13.782Z,3.75
2023-03-03T16:59:56.601Z,3.75
2023-03-03T17:02:46.453Z,3.72
2023-03-03T17:05:25.306Z,3.74
2023-03-03T17:08:08.392Z,3.78
2023-03-03T17:10:48.358Z,3.79
2023-03-03T17:13:36.743Z,3.80
2023-03-03T17:16:13.071Z,3.73
2023-03-03T17:18:53.606Z,3.76
2023-03-03T17:21:33.850Z,3.76
2023-03-03T17:24:14.139Z,3.78
2023-03-03T17:26:52.786Z,3.74
2023-03-03T17:29:38.077Z,3.71
2023-03-03T17:32:16.296Z,3.81
2023-03-03T17:34:56.049Z,3.98
2023-03-03T17:37:35.485Z,4.02
2023-03-03T17:40:22.941Z,4.07
2023-03-03T17:42:58.470Z,4.13
2023-03-03T17:45:29.060Z,4.19
2023-03-03T17:48:17.528Z,4.03
2023-03-03T17:51:07.240Z,4.00
2023-03-03T17:54:08.805Z,3.99
2023-03-03T17:56:49.740Z,3.97
2023-03-03T17:59:39.519Z,3.98
2023-03-03T18:02:44.341Z,3.97
2023-03-03T18:05:41.414Z,4.05
2023-03-03T18:08:28.446Z,4.07
2023-03-03T18:11:36.398Z,4.13
2023-03-03T18:14:32.116Z,4.04
2023-03-03T18:17:35.006Z,4.03
2023-03-03T18:20:32.141Z,4.09
2023-03-03T18:23:24.855Z,4.08
2023-03-03T18:25:55.206Z,4.03
2023-03-03T18:28:24.252Z,4.06
2023-03-03T18:30:58.545Z,4.14
2023-03-03T18:33:44.491Z,4.13
2023-03-03T18:36:16.447Z,4.09
2023-03-03T18:38:49.229Z,4.13
2023-03-03T18:41:24.529Z,4.14
2023-03-03T18:43:56.066Z,4.14
2023-03-03T18:46:47.352Z,4.11
2023-03-03T18:49:16.901Z,4.13
2023-03-03T18:52:12.993Z,4.14
2023-03-03T18:54:42.137Z,4.17
2023-03-03T18:57:16.885Z,4.15
2023-03-03T18:59:59.321Z,4.20
2023-03-03T19:02:38.855Z,4.27
2023-03-03T19:05:18.077Z,4.33
2023-03-03T19:07:57.575Z,4.27
2023-03-03T19:10:56.206Z,4.25
2023-03-03T19:13:42.468Z,4.23
2023-03-03T19:16:12.329Z,4.21
2023-03-03T19:19:00.357Z,4.23
2023-03-03T19:21:31.642Z,4.26
2023-03-03T19:24:01.314Z,4.27
2023-03-03T19:26:50.232Z,4.27
2023-03-03T19:29:55.172Z,4.34
2023-03-03T19:32:36.258Z,4.28
2023-03-03T19:35:19.833Z,4.36
2023-03-03T19:37:56.729Z,4.23
2023-03-03T19:40:35.097Z,4.23
2023-03-03T19:43:16.502Z,4.25
2023-03-03T19:45:55.748Z,4.33
2023-03-03T19:48:32.735Z,4.36
2023-03-03T19:51:10.267Z,4.42
2023-03-03T19:53:48.226Z,4.45
2023-03-03T19:56:21.329Z,4.48
2023-03-03T19:59:20.824Z,4.54
2023-03-03T20:01:59.312Z,4.56
2023-03-03T20:04:40.835Z,4.58
2023-03-03T20:07:24.024Z,4.57
2023-03-03T20:10:02.415Z,4.57
2023-03-03T20:12:40.094Z,4.58
2023-03-03T20:15:15.379Z,4.60
2023-03-03T20:17:52.156Z,4.75
2023-03-03T20:20:51.150Z,4.86
2023-03-03T20:23:24.064Z,4.93
2023-03-03T20:25:56.445Z,4.96
2023-03-03T20:28:58.626Z,4.89
2023-03-03T20:31:36.625Z,4.78
2023-03-03T20:34:12.135Z,4.73
2023-03-03T20:36:50.131Z,4.71
2023-03-03T20:39:29.461Z,4.67
2023-03-03T20:42:06.042Z,4.72
2023-03-03T20:44:51.260Z,4.74
2023-03-03T20:47:32.127Z,4.72
2023-03-03T20:50:16.435Z,4.68
2023-03-03T20:52:57.179Z,4.62
2023-03-03T20:55:36.283Z,4.68
2023-03-03T20:58:10.652Z,4.71
2023-03-03T21:00:44.566Z,4.71
2023-03-03T21:03:20.556Z,4.71
2023-03-03T21:05:59.737Z,4.66
2023-03-03T21:08:53.584Z,4.63
2023-03-03T21:11:22.964Z,4.62
2023-03-03T21:13:54.117Z,4.64
2023-03-03T21:16:33.499Z,4.65
2023-03-03T21:19:04.006Z,4.71
2023-03-03T21:21:34.400Z,4.76
2023-03-03T21:24:02.199Z,4.78
2023-03-03T21:26:50.854Z,4.74
2023-03-03T21:29:29.153Z,4.73
2023-03-03T21:31:59.139Z,4.69
2023-03-03T21:34:30.771Z,4.71
2023-03-03T21:36:59.446Z,4.75
2023-03-03T21:39:30.717Z,4.82
2023-03-03T21:42:01.520Z,4.83
2023-03-03T21:44:38.487Z,4.82
2023-03-03T21:47:07.620Z,4.75
2023-03-03T21:49:37.418Z,4.70
2023-03-03T21:52:05.365Z,4.75
2023-03-03T21:54:33.086Z,4.76
2023-03-03T21:57:00.780Z,4.73
2023-03-03T21:59:28.666Z,4.80
2023-03-03T22:01:56.471Z,4.83
2023-03-03T22:04:24.543Z,4.82
2023-03-03T22:06:53.569Z,4.81
2023-03-03T22:09:21.259Z,4.79
2023-03-03T22:11:48.930Z,4.78
2023-03-03T22:14:16.906Z,4.76
2023-03-03T22:16:44.613Z,4.75
2023-03-03T22:19:12.318Z,4.78
2023-03-03T22:21:40.685Z,4.83
2023-03-03T22:24:10.075Z,4.81
2023-03-03T22:26:37.757Z,4.79
2023-03-03T22:29:06.429Z,4.85
2023-03-03T22:31:34.189Z,4.91
2023-03-03T22:34:01.913Z,4.95
2023-03-03T22:36:29.795Z,4.94
2023-03-03T22:38:57.452Z,4.89
2023-03-03T22:41:26.529Z,4.84
2023-03-03T22:43:54.186Z,4.85
2023-03-03T22:46:21.879Z,4.88
2023-03-03T22:48:49.552Z,4.78
2023-03-03T22:51:18.265Z,4.74
2023-03-03T22:53:45.871Z,4.75
2023-03-03T22:56:13.520Z,4.75
2023-03-03T22:58:43.708Z,4.82
2023-03-03T23:01:11.413Z,4.82
2023-03-03T23:03:39.285Z,4.83
2023-03-03T23:06:07.687Z,4.81
2023-03-03T23:08:35.346Z,4.79
2023-03-03T23:11:02.962Z,4.74
2023-03-03T23:13:31.718Z,4.80
2023-03-03T23:16:02.429Z,4.77
2023-03-03T23:18:30.336Z,4.79
2023-03-03T23:20:58.029Z,4.81
2023-03-03T23:23:25.974Z,4.83
2023-03-03T23:25:53.628Z,4.79
2023-03-03T23:28:21.534Z,4.80
2023-03-03T23:30:51.752Z,4.79
2023-03-03T23:33:21.424Z,4.83
2023-03-03T23:35:49.859Z,4.84
2023-03-03T23:38:17.765Z,4.83
2023-03-03T23:40:46.593Z,4.75
2023-03-03T23:43:14.470Z,4.74
2023-03-03T23:45:42.107Z,4.78
2023-03-03T23:48:09.989Z,4.82
2023-03-03T23:50:39.219Z,4.81
2023-03-03T23:53:08.139Z,4.84
2023-03-03T23:55:37.484Z,4.81
2023-03-03T23:58:05.877Z,4.87
